createdAt,value
2022-11-09T00:02:24.098Z,12.60
2022-11-09T00:04:51.116Z,12.50
2022-11-09T00:07:18.073Z,12.50
2022-11-09T00:09:45.170Z,12.50
2022-11-09T00:12:12.196Z,12.50
2022-11-09T00:14:39.548Z,12.60
2022-11-09T00:17:06.453Z,12.60
2022-11-09T00:19:33.416Z,12.60
2022-11-09T00:22:00.344Z,12.60
2022-11-09T00:24:27.293Z,12.60
2022-11-09T00:26:54.236Z,12.60
2022-11-09T00:29:21.105Z,12.60
2022-11-09T00:31:48.742Z,12.60
2022-11-09T00:34:15.708Z,12.60
2022-11-09T00:36:42.644Z,12.60
2022-11-09T00:39:09.595Z,12.60
2022-11-09T00:41:36.535Z,12.60
2022-11-09T00:44:04.190Z,12.70
2022-11-09T00:49:45.022Z,12.70
2022-11-09T00:52:12.095Z,12.70
2022-11-09T00:54:39.087Z,12.70
2022-11-09T00:57:05.995Z,12.70
2022-11-09T00:59:32.955Z,12.70
2022-11-09T01:01:59.913Z,12.80
2022-11-09T01:04:26.827Z,12.80
2022-11-09T01:06:54.007Z,12.80
2022-11-09T01:09:21.041Z,12.80
2022-11-09T01:11:48.243Z,12.80
2022-11-09T01:14:15.134Z,12.80
2022-11-09T01:16:42.124Z,12.80
2022-11-09T01:19:09.181Z,12.70
2022-11-09T01:21:36.086Z,12.70
2022-11-09T01:24:03.544Z,12.60
2022-11-09T01:26:31.789Z,12.60
2022-11-09T01:28:58.664Z,12.60
2022-11-09T01:31:25.931Z,12.60
2022-11-09T01:33:52.889Z,12.60
2022-11-09T01:36:22.027Z,12.60
2022-11-09T01:38:52.815Z,12.60
2022-11-09T01:41:25.006Z,12.70
2022-11-09T01:44:16.991Z,12.70
2022-11-09T01:46:52.150Z,12.70
2022-11-09T01:49:41.202Z,12.80
2022-11-09T01:52:16.018Z,12.80
2022-11-09T01:54:48.235Z,12.90
2022-11-09T01:57:30.398Z,13.00
2022-11-09T02:00:07.606Z,13.00
2022-11-09T02:02:36.177Z,13.00
2022-11-09T02:05:10.718Z,13.10
2022-11-09T02:07:38.619Z,13.10
2022-11-09T02:10:15.117Z,13.10
2022-11-09T02:12:42.067Z,13.10
2022-11-09T02:15:12.209Z,13.10
2022-11-09T02:17:40.922Z,13.10
2022-11-09T02:20:15.693Z,13.10
2022-11-09T02:22:42.998Z,13.00
2022-11-09T02:25:11.303Z,12.90
2022-11-09T02:27:39.450Z,12.90
2022-11-09T02:30:07.680Z,12.90
2022-11-09T02:32:34.600Z,12.80
2022-11-09T02:35:01.631Z,12.80
2022-11-09T02:37:29.666Z,12.80
2022-11-09T02:39:58.985Z,12.80
2022-11-09T02:42:26.070Z,12.80
2022-11-09T02:44:58.582Z,12.80
2022-11-09T02:47:25.760Z,12.80
2022-11-09T02:49:52.951Z,12.80
2022-11-09T02:52:19.950Z,12.70
2022-11-09T02:54:46.929Z,12.70
2022-11-09T02:57:13.965Z,12.70
2022-11-09T02:59:41.046Z,12.70
2022-11-09T03:02:08.195Z,12.60
2022-11-09T03:04:35.144Z,12.60
2022-11-09T03:07:02.180Z,12.60
2022-11-09T03:09:29.123Z,12.60
2022-11-09T03:11:56.038Z,12.60
2022-11-09T03:14:22.909Z,12.70
2022-11-09T03:16:50.886Z,12.60
2022-11-09T03:19:18.045Z,12.60
2022-11-09T03:21:44.969Z,12.60
2022-11-09T03:24:11.898Z,12.60
2022-11-09T03:26:38.865Z,12.60
2022-11-09T03:29:05.850Z,12.60
2022-11-09T03:31:32.979Z,12.50
2022-11-09T03:33:59.975Z,12.50
2022-11-09T03:36:26.872Z,12.60
2022-11-09T03:38:53.805Z,12.50
2022-11-09T03:41:20.701Z,12.50
2022-11-09T03:43:47.678Z,12.50
2022-11-09T03:46:14.625Z,12.50
2022-11-09T03:48:43.928Z,12.40
2022-11-09T03:51:10.897Z,12.40
2022-11-09T03:53:37.833Z,12.40
2022-11-09T03:56:04.963Z,12.40
2022-11-09T03:58:32.030Z,12.30
2022-11-09T04:00:58.882Z,12.40
2022-11-09T04:03:25.809Z,12.40
2022-11-09T04:05:52.734Z,12.40
2022-11-09T04:08:19.789Z,12.40
2022-11-09T04:10:46.774Z,12.40
2022-11-09T04:13:13.673Z,12.40
2022-11-09T04:15:40.636Z,12.40
2022-11-09T04:18:09.575Z,12.40
2022-11-09T04:20:36.667Z,12.30
2022-11-09T04:23:05.832Z,12.30
2022-11-09T04:25:35.627Z,12.30
2022-11-09T04:28:04.162Z,12.30
2022-11-09T04:30:33.842Z,12.30
2022-11-09T04:33:01.976Z,12.30
2022-11-09T04:35:30.330Z,12.30
2022-11-09T04:38:03.660Z,12.40
2022-11-09T04:40:33.221Z,12.40
2022-11-09T04:43:01.235Z,12.40
2022-11-09T04:45:28.241Z,12.30
2022-11-09T04:48:03.685Z,12.40
2022-11-09T04:50:31.444Z,12.40
2022-11-09T04:53:10.169Z,12.30
2022-11-09T04:55:39.697Z,12.30
2022-11-09T04:58:07.815Z,12.30
2022-11-09T05:00:35.303Z,12.40
2022-11-09T05:03:03.901Z,12.40
2022-11-09T05:05:32.474Z,12.40
2022-11-09T05:07:59.622Z,12.40
2022-11-09T05:10:26.682Z,12.40
2022-11-09T05:13:08.466Z,12.40
2022-11-09T05:15:36.752Z,12.40
2022-11-09T05:18:05.204Z,12.40
2022-11-09T05:20:32.779Z,12.30
2022-11-09T05:23:19.114Z,12.30
2022-11-09T05:25:47.067Z,12.30
2022-11-09T05:28:15.421Z,12.30
2022-11-09T05:30:42.484Z,12.30
2022-11-09T05:33:09.423Z,12.30
2022-11-09T05:35:36.292Z,12.30
2022-11-09T05:38:03.333Z,12.30
2022-11-09T05:40:30.361Z,12.30
2022-11-09T05:42:57.328Z,12.30
2022-11-09T05:45:41.988Z,12.30
2022-11-09T05:48:11.662Z,12.30
2022-11-09T05:50:39.269Z,12.30
2022-11-09T05:53:06.281Z,12.30
2022-11-09T05:55:33.732Z,12.30
2022-11-09T05:58:00.865Z,12.30
2022-11-09T06:00:28.560Z,12.30
2022-11-09T06:03:05.178Z,12.30
2022-11-09T06:05:36.993Z,12.30
2022-11-09T06:08:10.588Z,12.30
2022-11-09T06:10:37.616Z,12.20
2022-11-09T06:13:04.981Z,12.20
2022-11-09T06:15:32.128Z,12.20
2022-11-09T06:17:59.413Z,12.20
2022-11-09T06:20:28.293Z,12.20
2022-11-09T06:23:03.003Z,12.20
2022-11-09T06:25:32.663Z,12.20
2022-11-09T06:27:59.851Z,12.20
2022-11-09T06:30:26.899Z,12.20
2022-11-09T06:32:59.380Z,12.20
2022-11-09T06:35:26.400Z,12.20
2022-11-09T06:38:00.497Z,12.10
2022-11-09T06:40:28.146Z,12.10
2022-11-09T06:42:59.295Z,12.10
2022-11-09T06:45:27.569Z,12.00
2022-11-09T06:48:03.235Z,12.00
2022-11-09T06:50:32.922Z,12.00
2022-11-09T06:53:02.290Z,12.00
2022-11-09T06:55:30.636Z,12.00
2022-11-09T06:57:58.396Z,12.00
2022-11-09T07:00:27.862Z,11.90
2022-11-09T07:02:54.888Z,11.90
2022-11-09T07:05:21.959Z,11.90
2022-11-09T07:07:48.938Z,12.00
2022-11-09T07:10:16.471Z,12.00
2022-11-09T07:12:43.487Z,12.00
2022-11-09T07:15:11.583Z,12.00
2022-11-09T07:17:39.822Z,12.10
2022-11-09T07:20:08.503Z,12.00
2022-11-09T07:22:39.402Z,12.10
2022-11-09T07:25:10.889Z,12.10
2022-11-09T07:27:37.912Z,12.10
2022-11-09T07:30:05.727Z,12.10
2022-11-09T07:35:23.594Z,12.10
2022-11-09T07:37:50.474Z,12.10
2022-11-09T07:40:17.399Z,12.20
2022-11-09T07:42:44.267Z,12.20
2022-11-09T07:45:11.254Z,12.20
2022-11-09T07:47:38.145Z,12.30
2022-11-09T07:50:05.385Z,12.30
2022-11-09T07:52:32.393Z,12.40
2022-11-09T07:54:59.282Z,12.60
2022-11-09T07:57:26.502Z,12.90
2022-11-09T07:59:53.766Z,13.20
2022-11-09T08:02:20.740Z,13.50
2022-11-09T08:04:47.711Z,13.80
2022-11-09T08:07:14.735Z,14.20
2022-11-09T08:09:41.731Z,14.60
2022-11-09T08:12:08.594Z,14.70
2022-11-09T08:14:35.527Z,14.80
2022-11-09T08:17:02.394Z,14.90
2022-11-09T08:19:29.351Z,15.00
2022-11-09T08:21:57.839Z,15.20
2022-11-09T08:24:24.756Z,15.40
2022-11-09T08:26:51.869Z,15.60
2022-11-09T08:29:18.897Z,15.80
2022-11-09T08:31:45.937Z,15.90
2022-11-09T08:34:14.300Z,16.00
2022-11-09T08:36:41.311Z,16.10
2022-11-09T08:39:08.183Z,16.30
2022-11-09T08:41:35.134Z,16.60
2022-11-09T08:44:02.121Z,16.70
2022-11-09T08:46:29.710Z,17.00
2022-11-09T08:48:56.671Z,17.10
2022-11-09T08:51:23.615Z,17.10
2022-11-09T08:53:51.620Z,17.30
2022-11-09T08:56:19.162Z,17.80
2022-11-09T08:58:46.831Z,17.90
2022-11-09T09:01:17.018Z,18.10
2022-11-09T09:03:44.654Z,18.20
2022-11-09T09:06:11.660Z,18.20
2022-11-09T09:08:38.682Z,18.10
2022-11-09T09:11:06.166Z,18.10
2022-11-09T09:13:35.033Z,18.20
2022-11-09T09:16:12.567Z,18.60
2022-11-09T09:18:39.583Z,18.80
2022-11-09T09:21:08.422Z,18.90
2022-11-09T09:23:35.823Z,18.80
2022-11-09T09:26:02.787Z,18.90
2022-11-09T09:28:29.828Z,18.90
2022-11-09T09:31:01.102Z,18.90
2022-11-09T09:33:28.637Z,19.00
2022-11-09T09:35:57.450Z,19.20
2022-11-09T09:38:25.614Z,19.40
2022-11-09T09:41:01.328Z,19.60
2022-11-09T09:43:43.335Z,19.70
2022-11-09T09:46:38.728Z,19.60
2022-11-09T09:49:11.717Z,19.80
2022-11-09T09:51:45.565Z,19.50
2022-11-09T09:54:19.849Z,19.60
2022-11-09T09:56:49.478Z,19.70
2022-11-09T09:59:42.899Z,19.50
2022-11-09T10:02:29.154Z,19.60
2022-11-09T10:04:59.606Z,19.80
2022-11-09T10:07:39.759Z,19.80
2022-11-09T10:10:40.150Z,19.80
2022-11-09T10:13:29.560Z,19.60
2022-11-09T10:16:09.981Z,19.80
2022-11-09T10:18:55.543Z,19.40
2022-11-09T10:21:59.114Z,18.50
2022-11-09T10:24:32.163Z,17.90
2022-11-09T10:27:01.215Z,17.50
2022-11-09T10:29:39.855Z,17.50
2022-11-09T10:32:20.691Z,18.00
2022-11-09T10:35:17.558Z,18.40
2022-11-09T10:37:48.322Z,18.60
2022-11-09T10:40:41.041Z,18.80
2022-11-09T10:43:13.458Z,19.00
2022-11-09T10:45:43.023Z,18.20
2022-11-09T10:48:11.878Z,17.60
2022-11-09T10:50:52.988Z,17.00
2022-11-09T10:53:25.298Z,16.50
2022-11-09T10:56:05.376Z,16.20
2022-11-09T10:58:36.449Z,16.00
2022-11-09T11:01:14.306Z,15.90
2022-11-09T11:03:43.088Z,15.70
2022-11-09T11:06:27.932Z,15.60
2022-11-09T11:09:00.927Z,15.60
2022-11-09T11:11:37.307Z,15.70
2022-11-09T11:14:32.242Z,15.70
2022-11-09T11:16:59.547Z,15.60
2022-11-09T11:19:28.963Z,15.50
2022-11-09T11:22:14.479Z,15.40
2022-11-09T11:25:03.054Z,15.30
2022-11-09T11:27:44.175Z,15.20
2022-11-09T11:30:14.274Z,15.20
2022-11-09T11:32:47.054Z,15.10
2022-11-09T11:35:40.855Z,15.00
2022-11-09T11:38:37.285Z,14.90
2022-11-09T11:41:36.510Z,14.90
2022-11-09T11:44:09.276Z,14.90
2022-11-09T11:47:00.894Z,14.80
2022-11-09T11:49:38.483Z,14.80
2022-11-09T11:52:20.181Z,14.80
2022-11-09T11:54:47.075Z,14.70
2022-11-09T11:57:30.917Z,14.80
2022-11-09T12:00:13.709Z,14.80
2022-11-09T12:02:53.756Z,14.90
2022-11-09T12:05:39.116Z,15.30
2022-11-09T12:08:28.909Z,15.70
2022-11-09T12:11:41.923Z,16.00
2022-11-09T12:14:33.391Z,15.70
2022-11-09T12:17:19.766Z,15.40
2022-11-09T12:20:05.219Z,15.20
2022-11-09T12:22:47.436Z,15.10
2022-11-09T12:25:31.421Z,15.10
2022-11-09T12:28:23.003Z,15.00
2022-11-09T12:31:10.725Z,15.00
2022-11-09T12:33:49.606Z,15.10
2022-11-09T12:36:23.643Z,15.30
2022-11-09T12:39:00.154Z,15.40
2022-11-09T12:41:33.485Z,15.50
2022-11-09T12:44:26.614Z,15.40
2022-11-09T12:47:15.494Z,15.40
2022-11-09T12:49:44.995Z,15.40
2022-11-09T12:52:15.385Z,15.30
2022-11-09T12:54:46.630Z,15.30
2022-11-09T12:57:21.709Z,15.20
2022-11-09T12:59:54.135Z,15.20
2022-11-09T13:02:26.812Z,15.10
2022-11-09T13:05:26.243Z,14.90
2022-11-09T13:07:54.828Z,14.80
2022-11-09T13:10:31.345Z,14.60
2022-11-09T13:13:06.160Z,14.30
2022-11-09T13:15:38.096Z,14.00
2022-11-09T13:18:23.393Z,13.80
2022-11-09T13:20:56.940Z,13.60
2022-11-09T13:23:47.589Z,13.50
2022-11-09T13:26:47.607Z,13.50
2022-11-09T13:29:29.476Z,13.40
2022-11-09T13:32:23.788Z,13.40
2022-11-09T13:34:56.556Z,13.30
2022-11-09T13:37:42.092Z,13.30
2022-11-09T13:40:31.114Z,13.30
2022-11-09T13:43:10.313Z,13.30
2022-11-09T13:45:49.064Z,13.20
2022-11-09T13:48:24.792Z,13.20
2022-11-09T13:50:56.493Z,13.20
2022-11-09T13:53:48.658Z,13.30
2022-11-09T13:56:32.223Z,13.40
2022-11-09T13:59:28.053Z,13.40
2022-11-09T14:01:58.018Z,13.40
2022-11-09T14:04:34.065Z,13.50
2022-11-09T14:07:25.446Z,13.50
2022-11-09T14:10:12.893Z,13.50
2022-11-09T14:12:54.681Z,13.50
2022-11-09T14:15:40.296Z,13.50
2022-11-09T14:18:16.142Z,13.50
2022-11-09T14:20:59.666Z,13.50
2022-11-09T14:23:32.123Z,13.50
2022-11-09T14:26:06.751Z,13.50
2022-11-09T14:28:34.895Z,13.50
2022-11-09T14:31:02.771Z,13.40
2022-11-09T14:33:36.436Z,13.40
2022-11-09T14:36:05.384Z,13.40
2022-11-09T14:38:48.014Z,13.40
2022-11-09T14:41:25.708Z,13.40
2022-11-09T14:43:55.929Z,13.40
2022-11-09T14:46:27.381Z,13.40
2022-11-09T14:49:02.499Z,13.40
2022-11-09T14:51:48.527Z,13.40
2022-11-09T14:54:18.703Z,13.30
2022-11-09T14:56:46.820Z,13.30
2022-11-09T14:59:26.560Z,13.20
2022-11-09T15:02:10.560Z,13.10
2022-11-09T15:05:01.575Z,13.00
2022-11-09T15:07:35.926Z,13.00
2022-11-09T15:10:08.856Z,12.90
2022-11-09T15:12:39.217Z,12.80
2022-11-09T15:15:20.932Z,12.80
2022-11-09T15:17:48.058Z,12.70
2022-11-09T15:20:14.944Z,12.60
2022-11-09T15:22:42.161Z,12.50
2022-11-09T15:25:41.398Z,12.40
2022-11-09T15:28:14.255Z,12.40
2022-11-09T15:30:48.696Z,12.30
2022-11-09T15:33:21.454Z,12.20
2022-11-09T15:35:53.975Z,12.20
2022-11-09T15:38:40.923Z,12.20
2022-11-09T15:41:19.856Z,12.20
2022-11-09T15:43:46.946Z,12.10
2022-11-09T15:46:16.818Z,12.10
2022-11-09T15:48:47.215Z,12.10
2022-11-09T15:51:15.415Z,12.10
2022-11-09T15:53:42.989Z,12.10
2022-11-09T15:56:16.492Z,12.10
2022-11-09T15:58:44.305Z,12.10
2022-11-09T16:01:11.589Z,12.10
2022-11-09T16:03:38.703Z,12.10
2022-11-09T16:06:05.877Z,12.00
2022-11-09T16:08:32.896Z,12.10
2022-11-09T16:11:04.038Z,12.00
2022-11-09T16:13:30.951Z,12.00
2022-11-09T16:16:05.269Z,12.10
2022-11-09T16:18:32.693Z,12.00
2022-11-09T16:21:11.568Z,12.00
2022-11-09T16:23:38.828Z,12.00
2022-11-09T16:26:10.647Z,12.00
2022-11-09T16:28:39.763Z,12.00
2022-11-09T16:31:07.760Z,12.00
2022-11-09T16:33:34.912Z,11.90
2022-11-09T16:36:24.552Z,11.90
2022-11-09T16:38:54.263Z,11.90
2022-11-09T16:41:21.955Z,11.90
2022-11-09T16:43:55.834Z,11.90
2022-11-09T16:46:27.586Z,11.90
2022-11-09T16:48:55.171Z,11.90
2022-11-09T16:51:22.144Z,11.80
2022-11-09T16:53:49.141Z,11.90
2022-11-09T16:56:17.104Z,11.90
2022-11-09T16:58:44.171Z,11.90
2022-11-09T17:01:12.759Z,11.90
2022-11-09T17:03:43.064Z,11.90
2022-11-09T17:06:11.220Z,11.90
2022-11-09T17:08:42.219Z,11.90
2022-11-09T17:11:11.526Z,11.80
2022-11-09T17:13:38.941Z,11.80
2022-11-09T17:16:09.065Z,11.80
2022-11-09T17:18:37.768Z,11.80
2022-11-09T17:21:10.291Z,11.80
2022-11-09T17:23:37.826Z,11.80
2022-11-09T17:26:06.769Z,11.80
2022-11-09T17:28:36.730Z,11.80
2022-11-09T17:31:23.358Z,11.90
2022-11-09T17:33:50.345Z,11.90
2022-11-09T17:36:29.951Z,11.90
2022-11-09T17:39:06.446Z,11.90
2022-11-09T17:41:33.364Z,11.90
2022-11-09T17:44:01.872Z,11.90
2022-11-09T17:46:28.783Z,11.90
2022-11-09T17:48:55.764Z,11.90
2022-11-09T17:51:22.684Z,11.90
2022-11-09T17:53:49.662Z,12.00
2022-11-09T17:56:16.575Z,12.00
2022-11-09T17:58:45.679Z,12.00
2022-11-09T18:01:16.688Z,12.00
2022-11-09T18:03:43.814Z,12.00
2022-11-09T18:06:14.121Z,12.00
2022-11-09T18:08:41.163Z,12.00
2022-11-09T18:11:09.032Z,11.90
2022-11-09T18:13:36.563Z,11.90
2022-11-09T18:16:17.507Z,11.90
2022-11-09T18:18:45.504Z,11.90
2022-11-09T18:21:15.723Z,11.90
2022-11-09T18:23:43.584Z,11.90
2022-11-09T18:26:10.943Z,11.90
2022-11-09T18:28:37.975Z,11.90
2022-11-09T18:31:08.363Z,11.80
2022-11-09T18:33:35.874Z,11.80
2022-11-09T18:36:05.739Z,11.70
2022-11-09T18:38:32.864Z,11.70
2022-11-09T18:41:05.270Z,11.70
2022-11-09T18:43:32.599Z,11.70
2022-11-09T18:46:02.066Z,11.70
2022-11-09T18:48:29.428Z,11.70
2022-11-09T18:50:58.768Z,11.60
2022-11-09T18:53:33.875Z,11.50
2022-11-09T18:56:06.601Z,11.50
2022-11-09T18:58:34.657Z,11.40
2022-11-09T19:01:06.315Z,11.40
2022-11-09T19:03:33.826Z,11.40
2022-11-09T19:06:08.053Z,11.30
2022-11-09T19:08:53.571Z,11.30
2022-11-09T19:11:20.510Z,11.30
2022-11-09T19:13:47.563Z,11.30
2022-11-09T19:16:15.639Z,11.20
2022-11-09T19:18:42.883Z,11.20
2022-11-09T19:21:25.157Z,11.20
2022-11-09T19:23:52.197Z,11.30
2022-11-09T19:26:20.120Z,11.30
2022-11-09T19:28:47.051Z,11.30
2022-11-09T19:31:16.306Z,11.30
2022-11-09T19:33:46.361Z,11.30
2022-11-09T19:36:29.673Z,11.30
2022-11-09T19:38:57.207Z,11.30
2022-11-09T19:41:25.496Z,11.30
2022-11-09T19:43:54.842Z,11.30
2022-11-09T19:46:22.094Z,11.20
2022-11-09T19:48:49.045Z,11.30
2022-11-09T19:51:17.182Z,11.20
2022-11-09T19:53:50.146Z,11.20
2022-11-09T19:56:18.246Z,11.20
2022-11-09T19:58:52.232Z,11.20
2022-11-09T20:01:19.865Z,11.10
2022-11-09T20:03:55.522Z,11.10
2022-11-09T20:06:23.761Z,11.10
2022-11-09T20:08:52.123Z,11.00
2022-11-09T20:11:40.489Z,11.00
2022-11-09T20:14:08.663Z,11.00
2022-11-09T20:16:36.840Z,11.00
2022-11-09T20:19:05.300Z,11.00
2022-11-09T20:21:32.332Z,11.00
2022-11-09T20:23:59.474Z,11.10
2022-11-09T20:26:26.788Z,11.10
2022-11-09T20:28:54.874Z,11.00
2022-11-09T20:31:23.539Z,11.00
2022-11-09T20:33:51.106Z,11.00
2022-11-09T20:36:21.239Z,11.00
2022-11-09T20:38:48.712Z,11.00
2022-11-09T20:41:15.824Z,10.90
2022-11-09T20:43:43.123Z,10.90
2022-11-09T20:46:22.429Z,10.80
2022-11-09T20:48:55.113Z,10.80
2022-11-09T20:51:23.741Z,10.80
2022-11-09T20:53:51.438Z,10.70
2022-11-09T20:56:19.410Z,10.80
2022-11-09T20:58:47.269Z,10.70
2022-11-09T21:01:24.837Z,10.70
2022-11-09T21:03:53.063Z,10.70
2022-11-09T21:06:21.322Z,10.60
2022-11-09T21:08:50.460Z,10.60
2022-11-09T21:11:18.540Z,10.60
2022-11-09T21:13:53.212Z,10.60
2022-11-09T21:16:22.617Z,10.60
2022-11-09T21:18:49.667Z,10.60
2022-11-09T21:21:22.339Z,10.60
2022-11-09T21:24:08.586Z,10.60
2022-11-09T21:26:54.374Z,10.60
2022-11-09T21:29:42.314Z,10.60
2022-11-09T21:32:11.106Z,10.50
2022-11-09T21:34:38.583Z,10.50
2022-11-09T21:37:05.764Z,10.60
2022-11-09T21:39:33.241Z,10.60
2022-11-09T21:42:00.960Z,10.60
2022-11-09T21:44:32.176Z,10.60
2022-11-09T21:46:59.867Z,10.60
2022-11-09T21:49:27.280Z,10.60
2022-11-09T21:51:54.617Z,10.60
2022-11-09T21:54:22.648Z,10.70
2022-11-09T21:56:50.790Z,10.60
2022-11-09T21:59:18.239Z,10.60
2022-11-09T22:01:45.623Z,10.60
2022-11-09T22:04:13.023Z,10.70
2022-11-09T22:06:41.396Z,10.70
2022-11-09T22:09:13.178Z,10.70
2022-11-09T22:11:58.973Z,10.70
2022-11-09T22:14:44.151Z,10.70
2022-11-09T22:17:12.498Z,10.80
2022-11-09T22:19:58.840Z,10.70
2022-11-09T22:22:29.270Z,10.70
2022-11-09T22:24:56.522Z,10.80
2022-11-09T22:27:23.566Z,10.80
2022-11-09T22:29:50.640Z,10.80
2022-11-09T22:32:17.783Z,10.90
2022-11-09T22:34:44.919Z,10.90
2022-11-09T22:37:12.238Z,11.00
2022-11-09T22:39:41.780Z,10.90
2022-11-09T22:42:12.832Z,10.90
2022-11-09T22:44:39.690Z,10.80
2022-11-09T22:47:06.620Z,10.80
2022-11-09T22:49:36.688Z,10.80
2022-11-09T22:52:04.363Z,10.80
2022-11-09T22:54:31.457Z,10.80
2022-11-09T22:56:58.468Z,10.80
2022-11-09T22:59:25.535Z,10.80
2022-11-09T23:01:52.485Z,10.70
2022-11-09T23:04:19.523Z,10.70
2022-11-09T23:06:46.486Z,10.70
2022-11-09T23:09:13.618Z,10.70
2022-11-09T23:11:40.687Z,10.60
2022-11-09T23:14:07.687Z,10.60
2022-11-09T23:16:34.672Z,10.60
2022-11-09T23:19:01.594Z,10.60
2022-11-09T23:21:36.934Z,10.50
2022-11-09T23:24:06.988Z,10.50
2022-11-09T23:26:34.491Z,10.40
2022-11-09T23:29:01.483Z,10.40
2022-11-09T23:31:28.398Z,10.40
2022-11-09T23:33:57.904Z,10.30
2022-11-09T23:36:26.509Z,10.40
2022-11-09T23:38:53.772Z,10.40
2022-11-09T23:41:20.885Z,10.40
2022-11-09T23:43:49.860Z,10.30
2022-11-09T23:46:18.032Z,10.30
2022-11-09T23:48:45.327Z,10.30
2022-11-09T23:51:12.770Z,10.30
2022-11-09T23:53:39.716Z,10.30
2022-11-09T23:56:09.344Z,10.30
2022-11-09T23:58:36.694Z,10.30
